sensor_id;sensor_type;location;lat;lon;timestamp;pressure;altitude;pressure_sealevel;temperature;humidity
76156;BME280;64906;51.290;7.348;2023-10-19T00:01:13;96664.00;;;20.40;50.37
76156;BME280;64906;51.290;7.348;2023-10-19T00:03:41;96652.69;;;20.41;50.35
76156;BME280;64906;51.290;7.348;2023-10-19T00:06:07;96646.44;;;20.41;50.20
76156;BME280;64906;51.290;7.348;2023-10-19T00:08:32;96640.25;;;20.44;50.20
76156;BME280;64906;51.290;7.348;2023-10-19T00:11:07;96647.34;;;20.45;50.63
76156;BME280;64906;51.290;7.348;2023-10-19T00:13:38;96648.47;;;20.44;50.07
76156;BME280;64906;51.290;7.348;2023-10-19T00:16:04;96638.44;;;20.36;50.64
76156;BME280;64906;51.290;7.348;2023-10-19T00:18:42;96653.50;;;20.42;50.60
76156;BME280;64906;51.290;7.348;2023-10-19T00:21:08;96644.81;;;20.40;50.39
76156;BME280;64906;51.290;7.348;2023-10-19T00:23:45;96632.28;;;20.39;50.49
76156;BME280;64906;51.290;7.348;2023-10-19T00:26:13;96639.34;;;20.40;50.45
76156;BME280;64906;51.290;7.348;2023-10-19T00:28:46;96626.91;;;20.30;50.33
76156;BME280;64906;51.290;7.348;2023-10-19T00:31:13;96636.81;;;20.35;50.56
76156;BME280;64906;51.290;7.348;2023-10-19T00:33:39;96635.34;;;20.37;50.77
76156;BME280;64906;51.290;7.348;2023-10-19T00:36:08;96645.16;;;20.38;50.53
76156;BME280;64906;51.290;7.348;2023-10-19T00:38:35;96652.25;;;20.39;50.25
76156;BME280;64906;51.290;7.348;2023-10-19T00:41:01;96646.09;;;20.42;50.38
76156;BME280;64906;51.290;7.348;2023-10-19T00:43:36;96648.03;;;20.42;50.12
76156;BME280;64906;51.290;7.348;2023-10-19T00:46:09;96641.19;;;20.36;50.72
76156;BME280;64906;51.290;7.348;2023-10-19T00:48:57;96639.56;;;20.35;50.24
76156;BME280;64906;51.290;7.348;2023-10-19T00:51:35;96652.50;;;20.34;50.70
76156;BME280;64906;51.290;7.348;2023-10-19T00:54:12;96639.91;;;20.33;50.57
76156;BME280;64906;51.290;7.348;2023-10-19T00:56:42;96636.41;;;20.33;50.78
76156;BME280;64906;51.290;7.348;2023-10-19T00:59:15;96630.44;;;20.31;50.37
76156;BME280;64906;51.290;7.348;2023-10-19T01:01:45;96634.09;;;20.35;50.74
76156;BME280;64906;51.290;7.348;2023-10-19T01:04:13;96630.91;;;20.33;50.44
76156;BME280;64906;51.290;7.348;2023-10-19T01:06:40;96630.56;;;20.34;50.69
76156;BME280;64906;51.290;7.348;2023-10-19T01:09:10;96623.94;;;20.35;50.61
76156;BME280;64906;51.290;7.348;2023-10-19T01:11:40;96618.81;;;20.34;50.45
76156;BME280;64906;51.290;7.348;2023-10-19T01:14:22;96619.59;;;20.34;50.80
76156;BME280;64906;51.290;7.348;2023-10-19T01:16:53;96610.94;;;20.32;50.68
76156;BME280;64906;51.290;7.348;2023-10-19T01:19:24;96606.25;;;20.33;50.76
76156;BME280;64906;51.290;7.348;2023-10-19T01:21:52;96619.94;;;20.33;50.71
76156;BME280;64906;51.290;7.348;2023-10-19T01:24:23;96608.19;;;20.32;50.45
76156;BME280;64906;51.290;7.348;2023-10-19T01:27:06;96613.66;;;20.32;50.83
76156;BME280;64906;51.290;7.348;2023-10-19T01:29:37;96618.34;;;20.32;50.55
76156;BME280;64906;51.290;7.348;2023-10-19T01:32:07;96628.16;;;20.33;50.99
76156;BME280;64906;51.290;7.348;2023-10-19T01:34:37;96632.38;;;20.30;50.78
76156;BME280;64906;51.290;7.348;2023-10-19T01:37:02;96643.00;;;20.32;50.69
76156;BME280;64906;51.290;7.348;2023-10-19T01:39:33;96636.03;;;20.34;50.53
76156;BME280;64906;51.290;7.348;2023-10-19T01:42:02;96630.09;;;20.32;50.71
76156;BME280;64906;51.290;7.348;2023-10-19T01:44:30;96626.78;;;20.27;50.57
76156;BME280;64906;51.290;7.348;2023-10-19T01:46:55;96621.88;;;20.32;50.92
76156;BME280;64906;51.290;7.348;2023-10-19T01:49:20;96610.81;;;20.29;50.77
76156;BME280;64906;51.290;7.348;2023-10-19T01:51:53;96626.09;;;20.30;51.14
76156;BME280;64906;51.290;7.348;2023-10-19T01:54:22;96622.69;;;20.33;50.70
76156;BME280;64906;51.290;7.348;2023-10-19T01:56:52;96618.00;;;20.33;50.98
76156;BME280;64906;51.290;7.348;2023-10-19T01:59:22;96624.16;;;20.30;51.06
76156;BME280;64906;51.290;7.348;2023-10-19T02:01:47;96620.19;;;20.28;51.05
76156;BME280;64906;51.290;7.348;2023-10-19T02:04:14;96619.50;;;20.31;50.83
76156;BME280;64906;51.290;7.348;2023-10-19T02:06:40;96605.56;;;20.24;51.05
76156;BME280;64906;51.290;7.348;2023-10-19T02:09:10;96604.16;;;20.30;50.62
76156;BME280;64906;51.290;7.348;2023-10-19T02:11:56;96595.94;;;20.30;50.64
76156;BME280;64906;51.290;7.348;2023-10-19T02:14:23;96602.25;;;20.30;50.67
76156;BME280;64906;51.290;7.348;2023-10-19T02:16:54;96585.81;;;20.30;50.62
76156;BME280;64906;51.290;7.348;2023-10-19T02:19:21;96580.19;;;20.27;51.02
76156;BME280;64906;51.290;7.348;2023-10-19T02:21:48;96576.78;;;20.30;50.91
76156;BME280;64906;51.290;7.348;2023-10-19T02:24:14;96573.50;;;20.24;51.05
76156;BME280;64906;51.290;7.348;2023-10-19T02:26:41;96585.69;;;20.27;50.98
76156;BME280;64906;51.290;7.348;2023-10-19T02:29:07;96580.19;;;20.27;51.24
76156;BME280;64906;51.290;7.348;2023-10-19T02:31:34;96579.84;;;20.28;51.32
76156;BME280;64906;51.290;7.348;2023-10-19T02:33:59;96573.50;;;20.24;51.05
76156;BME280;64906;51.290;7.348;2023-10-19T02:36:28;96577.47;;;20.27;51.02
76156;BME280;64906;51.290;7.348;2023-10-19T02:38:56;96584.56;;;20.28;51.18
76156;BME280;64906;51.290;7.348;2023-10-19T02:41:24;96575.19;;;20.29;51.10
76156;BME280;64906;51.290;7.348;2023-10-19T02:43:52;96575.06;;;20.25;51.00
76156;BME280;64906;51.290;7.348;2023-10-19T02:46:30;96582.59;;;20.28;51.35
76156;BME280;64906;51.290;7.348;2023-10-19T02:49:00;96577.13;;;20.28;51.06
76156;BME280;64906;51.290;7.348;2023-10-19T02:51:25;96582.59;;;20.28;51.16
76156;BME280;64906;51.290;7.348;2023-10-19T02:53:51;96572.69;;;20.24;51.03
76156;BME280;64906;51.290;7.348;2023-10-19T02:56:16;96580.66;;;20.29;50.96
76156;BME280;64906;51.290;7.348;2023-10-19T02:58:43;96576.69;;;20.26;51.29
76156;BME280;64906;51.290;7.348;2023-10-19T03:01:13;96569.25;;;20.27;50.96
76156;BME280;64906;51.290;7.348;2023-10-19T03:03:39;96576.34;;;20.28;51.01
76156;BME280;64906;51.290;7.348;2023-10-19T03:06:04;96577.94;;;20.29;50.98
76156;BME280;64906;51.290;7.348;2023-10-19T03:08:31;96571.28;;;20.30;51.26
76156;BME280;64906;51.290;7.348;2023-10-19T03:10:56;96573.25;;;20.29;50.96
76156;BME280;64906;51.290;7.348;2023-10-19T03:13:32;96575.19;;;20.29;51.37
76156;BME280;64906;51.290;7.348;2023-10-19T03:15:59;96569.72;;;20.29;51.05
76156;BME280;64906;51.290;7.348;2023-10-19T03:18:26;96567.19;;;20.24;51.05
76156;BME280;64906;51.290;7.348;2023-10-19T03:20:52;96568.13;;;20.28;51.32
76156;BME280;64906;51.290;7.348;2023-10-19T03:23:17;96565.38;;;20.28;51.16
76156;BME280;64906;51.290;7.348;2023-10-19T03:25:43;96557.16;;;20.28;51.05
76156;BME280;64906;51.290;7.348;2023-10-19T03:28:15;96571.56;;;20.25;51.04
76156;BME280;64906;51.290;7.348;2023-10-19T03:30:42;96563.75;;;20.27;51.12
76156;BME280;64906;51.290;7.348;2023-10-19T03:33:07;96558.97;;;20.24;51.11
76156;BME280;64906;51.290;7.348;2023-10-19T03:35:38;96563.75;;;20.27;51.52
76156;BME280;64906;51.290;7.348;2023-10-19T03:38:06;96560.25;;;20.26;51.41
76156;BME280;64906;51.290;7.348;2023-10-19T03:40:39;96552.81;;;20.27;51.08
76156;BME280;64906;51.290;7.348;2023-10-19T03:43:04;96554.31;;;20.24;51.37
76156;BME280;64906;51.290;7.348;2023-10-19T03:45:39;96542.44;;;20.20;51.17
76156;BME280;64906;51.290;7.348;2023-10-19T03:48:09;96550.75;;;20.24;51.27
76156;BME280;64906;51.290;7.348;2023-10-19T03:50:35;96536.16;;;20.20;51.50
76156;BME280;64906;51.290;7.348;2023-10-19T03:53:01;96552.69;;;20.23;51.41
76156;BME280;64906;51.290;7.348;2023-10-19T03:55:29;96537.53;;;20.26;51.34
76156;BME280;64906;51.290;7.348;2023-10-19T03:57:56;96544.47;;;20.23;51.47
76156;BME280;64906;51.290;7.348;2023-10-19T04:00:21;96530.78;;;20.23;51.24
76156;BME280;64906;51.290;7.348;2023-10-19T04:02:55;96535.59;;;20.26;51.04
76156;BME280;64906;51.290;7.348;2023-10-19T04:05:20;96518.94;;;20.19;51.57
76156;BME280;64906;51.290;7.348;2023-10-19T04:07:50;96522.25;;;20.25;51.35
76156;BME280;64906;51.290;7.348;2023-10-19T04:10:20;96518.94;;;20.19;51.49
76156;BME280;64906;51.290;7.348;2023-10-19T04:13:01;96530.13;;;20.26;51.50
76156;BME280;64906;51.290;7.348;2023-10-19T04:15:27;96519.81;;;20.23;51.15
76156;BME280;64906;51.290;7.348;2023-10-19T04:17:54;96515.50;;;20.22;51.21
76156;BME280;64906;51.290;7.348;2023-10-19T04:20:21;96519.28;;;20.18;51.28
76156;BME280;64906;51.290;7.348;2023-10-19T04:23:07;96515.16;;;20.24;51.40
76156;BME280;64906;51.290;7.348;2023-10-19T04:25:35;96514.03;;;20.25;51.32
76156;BME280;64906;51.290;7.348;2023-10-19T04:28:01;96504.19;;;20.24;51.49
76156;BME280;64906;51.290;7.348;2023-10-19T04:30:26;96510.13;;;20.26;51.77
76156;BME280;64906;51.290;7.348;2023-10-19T04:32:52;96507.84;;;20.28;51.39
76156;BME280;64906;51.290;7.348;2023-10-19T04:35:19;96509.44;;;20.29;51.20
76156;BME280;64906;51.290;7.348;2023-10-19T04:37:53;96517.19;;;20.27;51.31
76156;BME280;64906;51.290;7.348;2023-10-19T04:40:20;96503.50;;;20.27;51.46
76156;BME280;64906;51.290;7.348;2023-10-19T04:42:46;96503.16;;;20.28;51.67
76156;BME280;64906;51.290;7.348;2023-10-19T04:45:12;96500.31;;;20.25;51.85
76156;BME280;64906;51.290;7.348;2023-10-19T04:47:38;96516.97;;;20.32;51.47
76156;BME280;64906;51.290;7.348;2023-10-19T04:50:05;96518.56;;;20.33;51.65
76156;BME280;64906;51.290;7.348;2023-10-19T04:52:31;96502.13;;;20.33;51.62
76156;BME280;64906;51.290;7.348;2023-10-19T04:54:57;96516.25;;;20.35;51.59
76156;BME280;64906;51.290;7.348;2023-10-19T04:57:23;96512.41;;;20.36;51.90
76156;BME280;64906;51.290;7.348;2023-10-19T04:59:48;96506.09;;;20.35;51.48
76156;BME280;64906;51.290;7.348;2023-10-19T05:02:13;96500.97;;;20.34;51.71
76156;BME280;64906;51.290;7.348;2023-10-19T05:04:39;96502.31;;;20.40;51.66
76156;BME280;64906;51.290;7.348;2023-10-19T05:07:06;96504.72;;;20.41;51.55
76156;BME280;64906;51.290;7.348;2023-10-19T05:09:32;96506.31;;;20.42;51.56
76156;BME280;64906;51.290;7.348;2023-10-19T05:11:57;96512.16;;;20.41;51.94
76156;BME280;64906;51.290;7.348;2023-10-19T05:14:22;96518.16;;;20.46;51.78
76156;BME280;64906;51.290;7.348;2023-10-19T05:16:48;96519.34;;;20.45;51.61
76156;BME280;64906;51.290;7.348;2023-10-19T05:19:14;96513.50;;;20.47;51.64
76156;BME280;64906;51.290;7.348;2023-10-19T05:21:39;96516.69;;;20.49;52.02
76156;BME280;64906;51.290;7.348;2023-10-19T05:24:05;96518.75;;;20.52;51.77
76156;BME280;64906;51.290;7.348;2023-10-19T05:26:33;96523.88;;;20.53;51.95
76156;BME280;64906;51.290;7.348;2023-10-19T05:28:58;96523.41;;;20.51;51.96
76156;BME280;64906;51.290;7.348;2023-10-19T05:31:23;96525.03;;;20.52;51.73
76156;BME280;64906;51.290;7.348;2023-10-19T05:33:49;96512.44;;;20.51;51.77
76156;BME280;64906;51.290;7.348;2023-10-19T05:36:14;96516.91;;;20.56;51.94
76156;BME280;64906;51.290;7.348;2023-10-19T05:38:40;96514.19;;;20.56;51.87
76156;BME280;64906;51.290;7.348;2023-10-19T05:41:06;96513.72;;;20.54;51.94
76156;BME280;64906;51.290;7.348;2023-10-19T05:43:32;96516.91;;;20.56;51.97
76156;BME280;64906;51.290;7.348;2023-10-19T05:45:59;96518.50;;;20.57;51.69
76156;BME280;64906;51.290;7.348;2023-10-19T05:48:25;96520.09;;;20.58;51.90
76156;BME280;64906;51.290;7.348;2023-10-19T05:50:50;96519.31;;;20.57;51.84
76156;BME280;64906;51.290;7.348;2023-10-19T05:53:15;96510.53;;;20.52;51.60
76156;BME280;64906;51.290;7.348;2023-10-19T05:55:44;96526.03;;;20.60;51.82
76156;BME280;64906;51.290;7.348;2023-10-19T05:58:09;96516.31;;;20.62;51.96
76156;BME280;64906;51.290;7.348;2023-10-19T06:00:35;96513.81;;;20.57;52.02
76156;BME280;64906;51.290;7.348;2023-10-19T06:03:00;96520.09;;;20.58;51.91
76156;BME280;64906;51.290;7.348;2023-10-19T06:05:25;96520.09;;;20.58;51.69
76156;BME280;64906;51.290;7.348;2023-10-19T06:07:50;96518.97;;;20.59;51.73
76156;BME280;64906;51.290;7.348;2023-10-19T06:10:18;96521.59;;;20.55;52.10
76156;BME280;64906;51.290;7.348;2023-10-19T06:12:46;96517.00;;;20.59;51.87
76156;BME280;64906;51.290;7.348;2023-10-19T06:15:13;96526.72;;;20.57;51.75
76156;BME280;64906;51.290;7.348;2023-10-19T06:17:42;96526.72;;;20.57;51.96
76156;BME280;64906;51.290;7.348;2023-10-19T06:20:10;96529.47;;;20.57;51.85
76156;BME280;64906;51.290;7.348;2023-10-19T06:22:55;96529.34;;;20.53;51.82
76156;BME280;64906;51.290;7.348;2023-10-19T06:25:22;96535.66;;;20.54;52.16
76156;BME280;64906;51.290;7.348;2023-10-19T06:27:48;96528.19;;;20.54;51.91
76156;BME280;64906;51.290;7.348;2023-10-19T06:30:15;96536.41;;;20.54;51.65
76156;BME280;64906;51.290;7.348;2023-10-19T06:32:51;96530.94;;;20.54;52.01
76156;BME280;64906;51.290;7.348;2023-10-19T06:35:17;96528.56;;;20.53;51.92
76156;BME280;64906;51.290;7.348;2023-10-19T06:37:43;96534.84;;;20.53;51.83
76156;BME280;64906;51.290;7.348;2023-10-19T06:40:09;96529.25;;;20.50;51.87
76156;BME280;64906;51.290;7.348;2023-10-19T06:42:37;96537.69;;;20.57;51.62
76156;BME280;64906;51.290;7.348;2023-10-19T06:45:03;96541.59;;;20.56;51.97
76156;BME280;64906;51.290;7.348;2023-10-19T06:47:28;96539.63;;;20.56;51.65
76156;BME280;64906;51.290;7.348;2023-10-19T06:49:54;96543.53;;;20.55;51.98
76156;BME280;64906;51.290;7.348;2023-10-19T06:52:21;96544.66;;;20.54;51.49
76156;BME280;64906;51.290;7.348;2023-10-19T06:54:46;96548.31;;;20.58;51.97
76156;BME280;64906;51.290;7.348;2023-10-19T06:57:11;96541.25;;;20.57;51.64
76156;BME280;64906;51.290;7.348;2023-10-19T06:59:37;96548.88;;;20.64;51.54
76156;BME280;64906;51.290;7.348;2023-10-19T07:02:02;96541.25;;;20.57;51.99
76156;BME280;64906;51.290;7.348;2023-10-19T07:04:28;96550.47;;;20.65;51.39
76156;BME280;64906;51.290;7.348;2023-10-19T07:06:54;96552.03;;;20.66;51.79
76156;BME280;64906;51.290;7.348;2023-10-19T07:09:19;96557.28;;;20.71;51.70
76156;BME280;64906;51.290;7.348;2023-10-19T07:11:46;96555.69;;;20.70;51.69
76156;BME280;64906;51.290;7.348;2023-10-19T07:14:12;96567.47;;;20.70;51.95
76156;BME280;64906;51.290;7.348;2023-10-19T07:16:39;96558.91;;;20.72;51.47
76156;BME280;64906;51.290;7.348;2023-10-19T07:19:06;96558.19;;;20.75;51.57
76156;BME280;64906;51.290;7.348;2023-10-19T07:21:31;96548.16;;;20.67;51.69
76156;BME280;64906;51.290;7.348;2023-10-19T07:24:01;96559.78;;;20.76;51.77
76156;BME280;64906;51.290;7.348;2023-10-19T07:26:30;96555.22;;;20.80;51.96
76156;BME280;64906;51.290;7.348;2023-10-19T07:28:59;96560.47;;;20.85;51.88
76156;BME280;64906;51.290;7.348;2023-10-19T07:31:25;96563.63;;;20.87;51.78
76156;BME280;64906;51.290;7.348;2023-10-19T07:33:52;96566.38;;;20.87;51.67
76156;BME280;64906;51.290;7.348;2023-10-19T07:36:21;96575.41;;;20.87;51.74
76156;BME280;64906;51.290;7.348;2023-10-19T07:38:46;96573.47;;;20.88;52.07
76156;BME280;64906;51.290;7.348;2023-10-19T07:41:13;96576.66;;;20.90;51.92
76156;BME280;64906;51.290;7.348;2023-10-19T07:43:38;96579.50;;;20.93;51.65
76156;BME280;64906;51.290;7.348;2023-10-19T07:46:04;96581.56;;;20.96;51.64
76156;BME280;64906;51.290;7.348;2023-10-19T07:48:29;96582.00;;;20.98;51.59
76156;BME280;64906;51.290;7.348;2023-10-19T07:50:55;96577.78;;;21.01;52.12
76156;BME280;64906;51.290;7.348;2023-10-19T07:53:21;96579.38;;;21.02;52.22
76156;BME280;64906;51.290;7.348;2023-10-19T07:55:47;96580.19;;;21.02;51.98
76156;BME280;64906;51.290;7.348;2023-10-19T07:58:12;96574.34;;;21.04;52.12
76156;BME280;64906;51.290;7.348;2023-10-19T08:00:37;96570.91;;;21.07;51.77
76156;BME280;64906;51.290;7.348;2023-10-19T08:03:04;96573.28;;;21.08;51.97
76156;BME280;64906;51.290;7.348;2023-10-19T08:05:30;96581.88;;;21.07;52.03
76156;BME280;64906;51.290;7.348;2023-10-19T08:07:56;96579.25;;;21.10;52.23
76156;BME280;64906;51.290;7.348;2023-10-19T08:10:23;96583.56;;;21.11;51.97
76156;BME280;64906;51.290;7.348;2023-10-19T08:12:50;96575.25;;;21.08;52.20
76156;BME280;64906;51.290;7.348;2023-10-19T08:15:17;96577.06;;;21.16;52.07
76156;BME280;64906;51.290;7.348;2023-10-19T08:17:47;96581.38;;;21.17;52.02
76156;BME280;64906;51.290;7.348;2023-10-19T08:20:13;96586.50;;;21.18;52.07
76156;BME280;64906;51.290;7.348;2023-10-19T08:22:45;96583.88;;;21.22;52.28
76156;BME280;64906;51.290;7.348;2023-10-19T08:25:13;96574.94;;;21.25;52.34
76156;BME280;64906;51.290;7.348;2023-10-19T08:27:43;96576.56;;;21.26;52.09
76156;BME280;64906;51.290;7.348;2023-10-19T08:30:14;96576.19;;;21.27;52.28
76156;BME280;64906;51.290;7.348;2023-10-19T08:32:41;96577.44;;;21.30;51.77
76156;BME280;64906;51.290;7.348;2023-10-19T08:35:10;96576.97;;;21.28;52.11
76156;BME280;64906;51.290;7.348;2023-10-19T08:37:40;96573.56;;;21.31;52.12
76156;BME280;64906;51.290;7.348;2023-10-19T08:40:10;96566.09;;;21.31;52.00
76156;BME280;64906;51.290;7.348;2023-10-19T08:42:44;96559.47;;;21.33;52.16
76156;BME280;64906;51.290;7.348;2023-10-19T08:45:16;96568.06;;;21.31;51.91
76156;BME280;64906;51.290;7.348;2023-10-19T08:47:49;96567.78;;;21.36;52.07
76156;BME280;64906;51.290;7.348;2023-10-19T08:50:19;96560.91;;;21.42;52.18
76156;BME280;64906;51.290;7.348;2023-10-19T08:52:52;96558.16;;;21.42;51.62
76156;BME280;64906;51.290;7.348;2023-10-19T08:55:17;96558.94;;;21.43;51.81
76156;BME280;64906;51.290;7.348;2023-10-19T08:57:43;96557.00;;;21.43;51.93
76156;BME280;64906;51.290;7.348;2023-10-19T09:00:08;96561.69;;;21.43;51.75
76156;BME280;64906;51.290;7.348;2023-10-19T09:02:34;96559.03;;;21.46;51.65
76156;BME280;64906;51.290;7.348;2023-10-19T09:05:06;96555.59;;;21.49;52.02
76156;BME280;64906;51.290;7.348;2023-10-19T09:07:31;96550.91;;;21.50;51.60
76156;BME280;64906;51.290;7.348;2023-10-19T09:09:58;96547.34;;;21.49;51.67
76156;BME280;64906;51.290;7.348;2023-10-19T09:12:24;96549.31;;;21.49;51.44
76156;BME280;64906;51.290;7.348;2023-10-19T09:14:50;96561.06;;;21.49;51.47
76156;BME280;64906;51.290;7.348;2023-10-19T09:17:15;96548.78;;;21.43;51.71
76156;BME280;64906;51.290;7.348;2023-10-19T09:19:44;96557.09;;;21.47;52.29
76156;BME280;64906;51.290;7.348;2023-10-19T09:22:12;96550.91;;;21.50;51.83
76156;BME280;64906;51.290;7.348;2023-10-19T09:24:48;96542.94;;;21.45;51.43
76156;BME280;64906;51.290;7.348;2023-10-19T09:27:17;96547.63;;;21.44;51.56
76156;BME280;64906;51.290;7.348;2023-10-19T09:29:43;96562.59;;;21.47;51.54
76156;BME280;64906;51.290;7.348;2023-10-19T09:32:08;96541.69;;;21.42;51.65
76156;BME280;64906;51.290;7.348;2023-10-19T09:34:34;96551.34;;;21.52;51.21
76156;BME280;64906;51.290;7.348;2023-10-19T09:37:01;96548.25;;;21.53;51.75
76156;BME280;64906;51.290;7.348;2023-10-19T09:39:31;96545.59;;;21.57;51.19
76156;BME280;64906;51.290;7.348;2023-10-19T09:42:06;96535.06;;;21.59;51.27
76156;BME280;64906;51.290;7.348;2023-10-19T09:44:55;96538.59;;;21.59;51.19
76156;BME280;64906;51.290;7.348;2023-10-19T09:47:31;96537.56;;;21.64;51.39
76156;BME280;64906;51.290;7.348;2023-10-19T09:50:01;96531.63;;;21.62;51.19
76156;BME280;64906;51.290;7.348;2023-10-19T09:52:27;96534.38;;;21.62;51.44
76156;BME280;64906;51.290;7.348;2023-10-19T09:57:30;96528.59;;;21.67;50.83
76156;BME280;64906;51.290;7.348;2023-10-19T10:00:02;96531.81;;;21.69;51.26
76156;BME280;64906;51.290;7.348;2023-10-19T10:02:38;96527.34;;;21.64;51.25
76156;BME280;64906;51.290;7.348;2023-10-19T10:05:04;96539.41;;;21.60;50.96
76156;BME280;64906;51.290;7.348;2023-10-19T10:07:29;96536.56;;;21.56;51.06
76156;BME280;64906;51.290;7.348;2023-10-19T10:09:56;96536.31;;;21.61;51.14
76156;BME280;64906;51.290;7.348;2023-10-19T10:12:22;96529.66;;;21.62;51.09
76156;BME280;64906;51.290;7.348;2023-10-19T10:14:58;96526.03;;;21.74;50.99
76156;BME280;64906;51.290;7.348;2023-10-19T10:17:25;96522.84;;;21.72;51.13
76156;BME280;64906;51.290;7.348;2023-10-19T10:22:39;96519.50;;;21.78;50.78
76156;BME280;64906;51.290;7.348;2023-10-19T10:25:07;96518.34;;;21.79;50.56
76156;BME280;64906;51.290;7.348;2023-10-19T10:27:35;96515.69;;;21.83;50.74
76156;BME280;64906;51.290;7.348;2023-10-19T10:30:04;96513.66;;;21.80;50.80
76156;BME280;64906;51.290;7.348;2023-10-19T10:32:58;96521.19;;;21.83;50.96
76156;BME280;64906;51.290;7.348;2023-10-19T10:38:03;96503.13;;;21.82;50.85
76156;BME280;64906;51.290;7.348;2023-10-19T10:40:31;96504.34;;;21.84;50.96
76156;BME280;64906;51.290;7.348;2023-10-19T10:43:06;96507.19;;;21.88;51.02
76156;BME280;64906;51.290;7.348;2023-10-19T10:45:32;96494.09;;;21.81;50.67
76156;BME280;64906;51.290;7.348;2023-10-19T10:47:57;96500.38;;;21.82;51.03
76156;BME280;64906;51.290;7.348;2023-10-19T10:50:26;96506.38;;;21.87;50.78
76156;BME280;64906;51.290;7.348;2023-10-19T10:52:53;96517.28;;;21.84;50.63
76156;BME280;64906;51.290;7.348;2023-10-19T10:55:23;96505.06;;;21.81;51.22
76156;BME280;64906;51.290;7.348;2023-10-19T10:57:49;96511.44;;;21.85;50.74
76156;BME280;64906;51.290;7.348;2023-10-19T11:00:15;96517.28;;;21.84;51.16
76156;BME280;64906;51.290;7.348;2023-10-19T11:02:45;96512.69;;;21.88;50.99
76156;BME280;64906;51.290;7.348;2023-10-19T11:05:16;96516.66;;;21.90;50.82
76156;BME280;64906;51.290;7.348;2023-10-19T11:08:09;96512.06;;;21.94;50.89
76156;BME280;64906;51.290;7.348;2023-10-19T11:10:35;96524.63;;;21.95;50.95
76156;BME280;64906;51.290;7.348;2023-10-19T11:13:10;96506.56;;;21.94;50.60
76156;BME280;64906;51.290;7.348;2023-10-19T11:15:38;96509.75;;;21.96;50.94
76156;BME280;64906;51.290;7.348;2023-10-19T11:18:07;96501.94;;;21.98;50.36
76156;BME280;64906;51.290;7.348;2023-10-19T11:20:36;96495.56;;;21.94;50.85
76156;BME280;64906;51.290;7.348;2023-10-19T11:23:01;96498.78;;;21.96;50.50
76156;BME280;64906;51.290;7.348;2023-10-19T11:25:29;96498.06;;;21.99;50.46
76156;BME280;64906;51.290;7.348;2023-10-19T11:27:57;96491.66;;;21.95;50.73
76156;BME280;64906;51.290;7.348;2023-10-19T11:30:24;96490.94;;;21.98;50.87
76156;BME280;64906;51.290;7.348;2023-10-19T11:32:50;96487.78;;;21.96;50.57
76156;BME280;64906;51.290;7.348;2023-10-19T11:35:19;96490.53;;;21.96;50.72
76156;BME280;64906;51.290;7.348;2023-10-19T11:37:52;96478.53;;;22.04;50.46
76156;BME280;64906;51.290;7.348;2023-10-19T11:40:19;96484.41;;;22.03;50.59
76156;BME280;64906;51.290;7.348;2023-10-19T11:42:45;96473.13;;;22.08;50.25
76156;BME280;64906;51.290;7.348;2023-10-19T11:45:10;96469.66;;;22.11;50.75
76156;BME280;64906;51.290;7.348;2023-10-19T11:47:37;96466.66;;;22.00;50.58
76156;BME280;64906;51.290;7.348;2023-10-19T11:50:02;96475.34;;;22.02;50.91
76156;BME280;64906;51.290;7.348;2023-10-19T11:52:28;96465.94;;;22.03;50.96
76156;BME280;64906;51.290;7.348;2023-10-19T11:54:54;96466.13;;;22.10;50.87
76156;BME280;64906;51.290;7.348;2023-10-19T11:57:20;96462.38;;;22.18;51.20
76156;BME280;64906;51.290;7.348;2023-10-19T11:59:45;96468.84;;;22.26;50.94
76156;BME280;64906;51.290;7.348;2023-10-19T12:02:10;96457.03;;;22.25;51.44
76156;BME280;64906;51.290;7.348;2023-10-19T12:04:36;96442.97;;;22.11;52.04
76156;BME280;64906;51.290;7.348;2023-10-19T12:07:02;96446.84;;;22.26;51.68
76156;BME280;64906;51.290;7.348;2023-10-19T12:09:29;96445.31;;;22.28;51.65
76156;BME280;64906;51.290;7.348;2023-10-19T12:11:55;96429.63;;;22.29;51.72
76156;BME280;64906;51.290;7.348;2023-10-19T12:14:21;96422.75;;;22.19;52.01
76156;BME280;64906;51.290;7.348;2023-10-19T12:16:47;96443.72;;;22.27;51.53
76156;BME280;64906;51.290;7.348;2023-10-19T12:19:12;96443.78;;;22.31;51.53
76156;BME280;64906;51.290;7.348;2023-10-19T12:21:39;96434.81;;;22.15;51.98
76156;BME280;64906;51.290;7.348;2023-10-19T12:24:07;96438.06;;;22.20;51.66
76156;BME280;64906;51.290;7.348;2023-10-19T12:26:33;96425.91;;;22.21;51.76
76156;BME280;64906;51.290;7.348;2023-10-19T12:28:59;96425.50;;;22.19;51.43
76156;BME280;64906;51.290;7.348;2023-10-19T12:31:24;96420.34;;;22.18;51.54
76156;BME280;64906;51.290;7.348;2023-10-19T12:33:50;96422.31;;;22.17;51.38
76156;BME280;64906;51.290;7.348;2023-10-19T12:36:16;96432.78;;;22.12;51.41
76156;BME280;64906;51.290;7.348;2023-10-19T12:38:53;96442.69;;;22.16;51.53
76156;BME280;64906;51.290;7.348;2023-10-19T12:41:20;96451.28;;;22.15;51.71
76156;BME280;64906;51.290;7.348;2023-10-19T12:43:46;96462.19;;;22.11;51.58
76156;BME280;64906;51.290;7.348;2023-10-19T12:46:12;96460.63;;;22.10;51.58
76156;BME280;64906;51.290;7.348;2023-10-19T12:48:45;96448.81;;;22.10;51.69
76156;BME280;64906;51.290;7.348;2023-10-19T12:51:13;96445.28;;;22.09;51.85
76156;BME280;64906;51.290;7.348;2023-10-19T12:53:39;96441.22;;;22.03;52.03
76156;BME280;64906;51.290;7.348;2023-10-19T12:56:05;96430.13;;;22.00;52.02
76156;BME280;64906;51.290;7.348;2023-10-19T12:58:32;96436.81;;;21.99;51.81
76156;BME280;64906;51.290;7.348;2023-10-19T13:00:58;96425.00;;;21.98;52.06
76156;BME280;64906;51.290;7.348;2023-10-19T13:03:24;96418.75;;;21.98;51.99
76156;BME280;64906;51.290;7.348;2023-10-19T13:05:56;96426.69;;;22.03;51.92
76156;BME280;64906;51.290;7.348;2023-10-19T13:08:23;96429.38;;;21.99;52.03
76156;BME280;64906;51.290;7.348;2023-10-19T13:10:49;96435.63;;;22.00;51.67
76156;BME280;64906;51.290;7.348;2023-10-19T13:13:15;96430.94;;;22.00;51.63